createdAt,value
2018-09-13T00:00:15.414Z,3.60
2018-09-13T00:01:32.071Z,4.20
2018-09-13T00:02:48.815Z,3.57
2018-09-13T00:04:05.569Z,3.97
2018-09-13T00:05:22.578Z,4.40
2018-09-13T00:06:40.053Z,4.80
2018-09-13T00:07:56.609Z,3.10
2018-09-13T00:09:14.349Z,3.60
2018-09-13T00:10:30.946Z,4.37
2018-09-13T00:11:47.646Z,3.40
2018-09-13T00:13:04.583Z,3.67
2018-09-13T00:14:21.206Z,4.20
2018-09-13T00:15:38.196Z,3.80
2018-09-13T00:16:54.893Z,4.13
2018-09-13T00:18:12.298Z,4.33
2018-09-13T00:19:28.921Z,3.40
2018-09-13T00:20:45.720Z,4.60
2018-09-13T00:22:03.210Z,3.90
2018-09-13T00:23:20.138Z,3.53
2018-09-13T00:24:36.675Z,4.20
2018-09-13T00:25:53.713Z,4.50
2018-09-13T00:27:11.025Z,4.23
2018-09-13T00:28:27.954Z,4.30
2018-09-13T00:29:44.790Z,4.40
2018-09-13T00:31:01.534Z,4.27
2018-09-13T00:32:18.471Z,4.17
2018-09-13T00:33:35.077Z,4.50
2018-09-13T00:34:51.795Z,4.63
2018-09-13T00:36:09.407Z,4.10
2018-09-13T00:37:26.136Z,4.70
2018-09-13T00:38:42.817Z,3.90
2018-09-13T00:39:59.785Z,4.67
2018-09-13T00:41:16.846Z,4.40
2018-09-13T00:42:34.178Z,4.80
2018-09-13T00:43:50.681Z,4.58
2018-09-13T00:45:07.480Z,6.10
2018-09-13T00:46:24.368Z,5.53
2018-09-13T00:47:42.917Z,4.27
2018-09-13T00:48:59.941Z,4.80
2018-09-13T00:50:17.420Z,4.50
2018-09-13T00:51:34.618Z,5.17
2018-09-13T00:52:51.749Z,4.37
2018-09-13T00:54:08.668Z,5.30
2018-09-13T00:55:25.750Z,4.50
2018-09-13T00:56:43.402Z,4.50
2018-09-13T00:58:00.271Z,5.10
2018-09-13T00:59:17.008Z,4.90
2018-09-13T01:00:33.818Z,5.40
2018-09-13T01:01:50.676Z,5.53
2018-09-13T01:03:07.379Z,5.40
2018-09-13T01:04:24.076Z,5.20
2018-09-13T01:05:40.736Z,4.93
2018-09-13T01:06:57.469Z,5.87
2018-09-13T01:08:14.339Z,5.67
2018-09-13T01:09:31.258Z,5.50
2018-09-13T01:10:47.967Z,5.47
2018-09-13T01:12:04.873Z,6.80
2018-09-13T01:13:21.486Z,5.27
2018-09-13T01:14:38.475Z,5.70
2018-09-13T01:15:55.259Z,5.40
2018-09-13T01:17:12.801Z,5.80
2018-09-13T01:18:29.684Z,5.23
2018-09-13T01:19:47.018Z,4.70
2018-09-13T01:21:04.241Z,5.50
2018-09-13T01:22:21.757Z,4.77
2018-09-13T01:23:38.549Z,5.30
2018-09-13T01:24:56.040Z,6.73
2018-09-13T01:26:13.096Z,6.07
2018-09-13T01:27:30.001Z,5.17
2018-09-13T01:28:46.745Z,5.13
2018-09-13T01:30:03.493Z,5.33
2018-09-13T01:31:20.281Z,5.40
2018-09-13T01:32:37.081Z,20.07
2018-09-13T01:33:53.687Z,30.40
2018-09-13T01:35:10.724Z,23.50
2018-09-13T01:36:27.488Z,16.80
2018-09-13T01:37:44.403Z,11.40
2018-09-13T01:39:01.092Z,9.97
2018-09-13T01:40:17.848Z,9.90
2018-09-13T01:41:34.483Z,9.90
2018-09-13T01:42:51.452Z,9.10
2018-09-13T01:44:08.284Z,8.77
2018-09-13T01:45:24.866Z,8.47
2018-09-13T01:46:41.979Z,9.17
2018-09-13T01:47:58.827Z,6.80
2018-09-13T01:49:15.990Z,7.70
2018-09-13T01:50:33.136Z,7.40
2018-09-13T01:51:49.978Z,7.83
2018-09-13T01:53:13.544Z,7.42
2018-09-13T01:54:30.781Z,6.78
2018-09-13T01:55:47.842Z,7.00
2018-09-13T01:57:04.586Z,6.87
2018-09-13T01:58:21.565Z,6.90
2018-09-13T01:59:38.546Z,6.53
2018-09-13T02:00:55.226Z,7.30
2018-09-13T02:02:12.203Z,7.40
2018-09-13T02:03:28.808Z,8.10
2018-09-13T02:04:45.519Z,6.73
2018-09-13T02:06:02.256Z,6.33
2018-09-13T02:07:18.910Z,7.10
2018-09-13T02:08:35.673Z,7.50
2018-09-13T02:09:52.265Z,7.30
2018-09-13T02:11:09.053Z,7.97
2018-09-13T02:12:26.036Z,7.50
2018-09-13T02:13:42.787Z,7.03
2018-09-13T02:14:59.483Z,7.97
2018-09-13T02:16:16.566Z,7.27
2018-09-13T02:17:33.071Z,7.33
2018-09-13T02:18:50.049Z,8.20
2018-09-13T02:20:07.529Z,6.97
2018-09-13T02:21:24.224Z,7.67
2018-09-13T02:22:40.772Z,6.90
2018-09-13T02:23:57.697Z,6.77
2018-09-13T02:25:14.503Z,5.97
2018-09-13T02:26:31.206Z,7.10
2018-09-13T02:27:48.009Z,6.53
2018-09-13T02:29:04.885Z,6.83
2018-09-13T02:30:21.602Z,6.70
2018-09-13T02:31:38.394Z,7.20
2018-09-13T02:32:55.424Z,6.80
2018-09-13T02:34:12.169Z,7.40
2018-09-13T02:35:29.274Z,6.67
2018-09-13T02:36:46.261Z,5.77
2018-09-13T02:38:03.861Z,6.80
2018-09-13T02:39:20.455Z,6.40
2018-09-13T02:40:37.238Z,6.73
2018-09-13T02:41:53.732Z,7.30
2018-09-13T02:43:10.499Z,7.80
2018-09-13T02:44:27.546Z,7.57
2018-09-13T02:45:44.109Z,7.70
2018-09-13T02:47:00.806Z,7.80
2018-09-13T02:48:17.811Z,7.33
2018-09-13T02:49:35.245Z,7.67
2018-09-13T02:50:52.252Z,7.03
2018-09-13T02:52:08.848Z,7.40
2018-09-13T02:53:25.638Z,7.87
2018-09-13T02:54:42.514Z,7.63
2018-09-13T02:55:59.506Z,7.43
2018-09-13T02:57:16.349Z,6.80
2018-09-13T02:58:33.307Z,8.17
2018-09-13T02:59:50.307Z,7.93
2018-09-13T03:01:07.922Z,8.53
2018-09-13T03:02:24.692Z,7.33
2018-09-13T03:03:41.336Z,7.60
2018-09-13T03:04:58.350Z,6.67
2018-09-13T03:06:15.095Z,7.90
2018-09-13T03:07:32.574Z,6.60
2018-09-13T03:08:49.569Z,6.87
2018-09-13T03:10:06.970Z,8.60
2018-09-13T03:11:23.844Z,7.60
2018-09-13T03:12:41.322Z,7.67
2018-09-13T03:13:58.421Z,8.37
2018-09-13T03:15:14.969Z,7.73
2018-09-13T03:16:32.021Z,8.40
2018-09-13T03:17:48.613Z,7.70
2018-09-13T03:19:05.428Z,9.10
2018-09-13T03:20:22.645Z,7.13
2018-09-13T03:21:40.195Z,8.30
2018-09-13T03:22:57.302Z,7.67
2018-09-13T03:24:14.592Z,7.87
2018-09-13T03:25:31.198Z,8.30
2018-09-13T03:26:47.869Z,8.27
2018-09-13T03:28:05.086Z,7.67
2018-09-13T03:29:22.517Z,7.87
2018-09-13T03:30:39.252Z,7.93
2018-09-13T03:31:56.234Z,7.70
2018-09-13T03:33:13.030Z,7.87
2018-09-13T03:34:29.906Z,7.20
2018-09-13T03:35:46.480Z,7.30
2018-09-13T03:37:04.170Z,7.43
2018-09-13T03:38:20.904Z,7.90
2018-09-13T03:39:38.318Z,7.50
2018-09-13T03:40:55.409Z,7.57
2018-09-13T03:42:12.677Z,8.77
2018-09-13T03:43:29.559Z,7.17
2018-09-13T03:44:46.158Z,7.00
2018-09-13T03:46:02.880Z,7.70
2018-09-13T03:47:19.758Z,8.20
2018-09-13T03:48:36.417Z,6.50
2018-09-13T03:49:52.938Z,8.83
2018-09-13T03:51:09.853Z,8.60
2018-09-13T03:52:26.700Z,7.30
2018-09-13T03:53:43.528Z,7.80
2018-09-13T03:55:00.096Z,8.03
2018-09-13T03:56:16.589Z,8.47
2018-09-13T03:57:33.524Z,7.00
2018-09-13T03:58:50.142Z,8.13
2018-09-13T04:00:07.156Z,8.17
2018-09-13T04:01:23.671Z,9.10
2018-09-13T04:02:40.573Z,7.93
2018-09-13T04:03:57.308Z,8.50
2018-09-13T04:05:13.989Z,7.10
2018-09-13T04:06:31.264Z,7.77
2018-09-13T04:07:48.748Z,9.00
2018-09-13T04:09:08.393Z,7.97
2018-09-13T04:10:25.652Z,9.40
2018-09-13T04:11:42.582Z,7.70
2018-09-13T04:12:59.449Z,7.03
2018-09-13T04:14:16.997Z,8.40
2018-09-13T04:15:33.914Z,8.17
2018-09-13T04:16:50.460Z,8.73
2018-09-13T04:18:07.255Z,9.50
2018-09-13T04:19:23.989Z,7.27
2018-09-13T04:20:40.677Z,8.33
2018-09-13T04:21:57.510Z,7.67
2018-09-13T04:23:14.916Z,7.93
2018-09-13T04:24:31.777Z,7.87
2018-09-13T04:25:48.301Z,7.83
2018-09-13T04:27:05.162Z,8.67
2018-09-13T04:28:22.848Z,7.20
2018-09-13T04:29:40.880Z,8.07
2018-09-13T04:30:58.146Z,7.73
2018-09-13T04:32:14.786Z,7.23
2018-09-13T04:33:31.818Z,7.97
2018-09-13T04:34:48.737Z,9.50
2018-09-13T04:36:05.682Z,8.00
2018-09-13T04:37:23.007Z,9.23
2018-09-13T04:38:39.829Z,7.93
2018-09-13T04:39:57.368Z,7.60
2018-09-13T04:41:13.853Z,8.07
2018-09-13T04:42:38.262Z,8.40
2018-09-13T04:43:55.095Z,7.90
2018-09-13T04:45:11.775Z,8.97
2018-09-13T04:46:28.343Z,8.57
2018-09-13T04:47:45.106Z,10.10
2018-09-13T04:49:02.520Z,8.63
2018-09-13T04:50:19.075Z,8.53
2018-09-13T04:51:36.659Z,8.23
2018-09-13T04:52:53.489Z,7.57
2018-09-13T04:54:09.996Z,9.20
2018-09-13T04:55:26.776Z,8.53
2018-09-13T04:56:43.265Z,8.10
2018-09-13T04:58:00.042Z,9.50
2018-09-13T04:59:17.058Z,8.13
2018-09-13T05:00:33.688Z,8.33
2018-09-13T05:01:50.673Z,8.10
2018-09-13T05:03:07.538Z,7.10
2018-09-13T05:04:24.373Z,8.33
2018-09-13T05:05:41.079Z,8.23
2018-09-13T05:06:57.824Z,8.00
2018-09-13T05:08:14.430Z,7.97
2018-09-13T05:09:31.233Z,8.30
2018-09-13T05:10:47.857Z,9.10
2018-09-13T05:12:04.847Z,7.93
2018-09-13T05:13:21.626Z,9.00
2018-09-13T05:14:38.146Z,8.47
2018-09-13T05:15:55.064Z,8.77
2018-09-13T05:17:11.807Z,8.83
2018-09-13T05:18:28.529Z,8.43
2018-09-13T05:19:45.358Z,9.27
2018-09-13T05:21:01.961Z,8.80
2018-09-13T05:22:18.777Z,8.27
2018-09-13T05:23:35.974Z,9.30
2018-09-13T05:24:53.451Z,8.07
2018-09-13T05:26:10.811Z,8.60
2018-09-13T05:27:27.554Z,7.43
2018-09-13T05:28:44.558Z,8.40
2018-09-13T05:30:02.005Z,7.57
2018-09-13T05:31:18.577Z,7.80
2018-09-13T05:32:35.232Z,7.47
2018-09-13T05:33:51.892Z,8.30
2018-09-13T05:35:08.724Z,7.93
2018-09-13T05:36:25.341Z,8.50
2018-09-13T05:37:42.185Z,8.73
2018-09-13T05:38:58.963Z,8.77
2018-09-13T05:40:15.339Z,8.17
2018-09-13T05:41:32.083Z,8.07
2018-09-13T05:42:48.935Z,7.93
2018-09-13T05:44:06.357Z,8.10
2018-09-13T05:45:23.248Z,7.27
2018-09-13T05:46:40.408Z,6.60
2018-09-13T05:47:57.917Z,7.90
2018-09-13T05:49:15.288Z,7.10
2018-09-13T05:50:32.183Z,7.17
2018-09-13T05:51:49.215Z,7.17
2018-09-13T05:53:06.537Z,8.10
2018-09-13T05:54:23.338Z,7.93
2018-09-13T05:55:40.035Z,8.00
2018-09-13T05:56:56.955Z,7.17
2018-09-13T05:58:14.214Z,7.00
2018-09-13T05:59:30.698Z,7.67
2018-09-13T06:00:47.484Z,5.50
2018-09-13T06:02:04.937Z,6.60
2018-09-13T06:03:22.077Z,6.87
2018-09-13T06:04:39.268Z,7.40
2018-09-13T06:05:55.941Z,6.85
2018-09-13T06:07:12.640Z,7.80
2018-09-13T06:08:29.276Z,6.47
2018-09-13T06:09:46.057Z,6.63
2018-09-13T06:11:02.745Z,6.13
2018-09-13T06:12:19.498Z,6.67
2018-09-13T06:13:36.188Z,7.03
2018-09-13T06:14:52.850Z,5.87
2018-09-13T06:16:09.397Z,6.83
2018-09-13T06:17:26.182Z,7.00
2018-09-13T06:18:43.009Z,7.47
2018-09-13T06:19:59.671Z,6.60
2018-09-13T06:21:16.468Z,9.80
2018-09-13T06:22:34.119Z,10.77
2018-09-13T06:23:50.918Z,9.73
2018-09-13T06:25:07.509Z,9.10
2018-09-13T06:26:24.210Z,8.27
2018-09-13T06:27:40.698Z,7.73
2018-09-13T06:28:57.844Z,8.30
2018-09-13T06:30:15.311Z,6.70
2018-09-13T06:31:31.939Z,8.20
2018-09-13T06:32:48.736Z,8.33
2018-09-13T06:34:05.774Z,6.60
2018-09-13T06:35:22.483Z,8.10
2018-09-13T06:36:39.311Z,6.60
2018-09-13T06:37:56.226Z,6.17
2018-09-13T06:39:13.607Z,6.20
2018-09-13T06:40:30.323Z,5.60
2018-09-13T06:41:47.110Z,6.00
2018-09-13T06:43:03.925Z,6.73
2018-09-13T06:44:20.811Z,6.33
2018-09-13T06:45:37.493Z,6.33
2018-09-13T06:46:54.549Z,6.90
2018-09-13T06:48:11.382Z,6.60
2018-09-13T06:49:28.327Z,7.27
2018-09-13T06:50:45.714Z,7.03
2018-09-13T06:52:02.761Z,7.30
2018-09-13T06:53:19.539Z,6.63
2018-09-13T06:54:36.250Z,7.60
2018-09-13T06:55:53.393Z,8.60
2018-09-13T06:57:10.834Z,7.37
2018-09-13T06:58:27.705Z,7.03
2018-09-13T06:59:44.492Z,7.97
2018-09-13T07:01:01.826Z,6.33
2018-09-13T07:02:19.217Z,7.60
2018-09-13T07:03:36.118Z,6.90
2018-09-13T07:04:53.193Z,7.20
2018-09-13T07:06:10.785Z,6.47
2018-09-13T07:07:27.635Z,5.77
2018-09-13T07:08:45.120Z,6.80
2018-09-13T07:10:02.033Z,7.07
2018-09-13T07:11:19.104Z,6.00
2018-09-13T07:12:35.979Z,7.20
2018-09-13T07:13:53.021Z,6.63
2018-09-13T07:15:09.689Z,7.23
2018-09-13T07:16:27.201Z,8.00
2018-09-13T07:17:44.279Z,6.43
2018-09-13T07:19:01.201Z,6.10
2018-09-13T07:20:18.701Z,5.43
2018-09-13T07:21:35.867Z,5.50
2018-09-13T07:22:53.258Z,5.70
2018-09-13T07:24:09.999Z,7.40
2018-09-13T07:25:27.121Z,5.80
2018-09-13T07:26:44.645Z,6.47
2018-09-13T07:28:01.499Z,6.37
2018-09-13T07:29:18.162Z,5.40
2018-09-13T07:30:35.273Z,6.00
2018-09-13T07:31:51.786Z,6.83
2018-09-13T07:33:08.660Z,5.40
2018-09-13T07:34:25.680Z,7.03
2018-09-13T07:35:42.544Z,7.37
2018-09-13T07:37:06.185Z,6.23
2018-09-13T07:38:23.293Z,5.90
2018-09-13T07:39:40.229Z,7.43
2018-09-13T07:40:57.041Z,7.00
2018-09-13T07:42:13.610Z,6.67
2018-09-13T07:43:30.545Z,7.53
2018-09-13T07:44:47.244Z,5.40
2018-09-13T07:46:04.298Z,6.87
2018-09-13T07:47:21.858Z,8.90
2018-09-13T07:48:38.418Z,7.10
2018-09-13T07:49:55.506Z,7.77
2018-09-13T07:51:11.936Z,6.30
2018-09-13T07:52:28.956Z,7.63
2018-09-13T07:53:45.652Z,7.50
2018-09-13T07:55:02.616Z,6.97
2018-09-13T07:56:19.458Z,7.00
2018-09-13T07:57:36.609Z,7.10
2018-09-13T07:58:53.874Z,6.93
2018-09-13T08:00:11.000Z,7.20
2018-09-13T08:01:27.718Z,7.83
2018-09-13T08:02:45.239Z,6.90
2018-09-13T08:04:02.281Z,6.00
2018-09-13T08:05:19.734Z,6.93
2018-09-13T08:06:36.558Z,6.77
2018-09-13T08:07:53.408Z,7.80
2018-09-13T08:09:11.824Z,6.80
2018-09-13T08:10:28.764Z,6.80
2018-09-13T08:11:45.677Z,6.97
2018-09-13T08:13:02.541Z,7.10
2018-09-13T08:14:19.373Z,7.20
2018-09-13T08:15:36.181Z,6.70
2018-09-13T08:16:52.977Z,7.17
2018-09-13T08:18:09.848Z,6.93
2018-09-13T08:19:26.488Z,6.70
2018-09-13T08:20:43.360Z,6.77
2018-09-13T08:22:00.210Z,6.67
2018-09-13T08:23:16.949Z,6.90
2018-09-13T08:24:33.793Z,7.23
2018-09-13T08:25:50.578Z,5.80
2018-09-13T08:27:07.649Z,6.60
2018-09-13T08:28:25.255Z,7.00
2018-09-13T08:29:41.862Z,7.30
2018-09-13T08:30:58.637Z,14.33
2018-09-13T08:32:15.752Z,12.87
2018-09-13T08:33:33.227Z,10.60
2018-09-13T08:34:50.101Z,9.27
2018-09-13T08:36:06.657Z,9.10
2018-09-13T08:37:23.334Z,8.73
2018-09-13T08:38:40.235Z,8.57
2018-09-13T08:39:57.133Z,7.93
2018-09-13T08:41:14.105Z,7.10
2018-09-13T08:42:30.973Z,8.03
2018-09-13T08:43:47.795Z,7.80
2018-09-13T08:45:05.385Z,7.03
2018-09-13T08:46:22.065Z,6.23
2018-09-13T08:47:39.356Z,7.53
2018-09-13T08:48:55.840Z,7.80
2018-09-13T08:50:12.589Z,7.80
2018-09-13T08:51:29.144Z,7.20
2018-09-13T08:52:46.045Z,7.07
2018-09-13T08:54:02.707Z,7.43
2018-09-13T08:55:19.321Z,7.10
2018-09-13T08:56:36.212Z,7.63
2018-09-13T08:57:52.920Z,7.37
2018-09-13T08:59:09.944Z,7.37
2018-09-13T09:00:27.583Z,7.40
2018-09-13T09:01:45.212Z,6.90
2018-09-13T09:03:02.734Z,6.57
2018-09-13T09:04:20.434Z,7.20
2018-09-13T09:05:36.896Z,7.13
2018-09-13T09:06:53.689Z,6.63
2018-09-13T09:08:10.528Z,6.95
2018-09-13T09:09:28.244Z,7.53
2018-09-13T09:10:45.713Z,7.20
2018-09-13T09:12:02.613Z,6.37
2018-09-13T09:13:19.540Z,7.57
2018-09-13T09:14:37.142Z,7.70
2018-09-13T09:15:53.845Z,7.53
2018-09-13T09:17:10.717Z,7.87
2018-09-13T09:18:27.594Z,6.67
2018-09-13T09:19:44.151Z,7.23
2018-09-13T09:21:01.062Z,6.10
2018-09-13T09:22:17.743Z,7.27
2018-09-13T09:23:34.317Z,7.27
2018-09-13T09:24:51.166Z,7.77
2018-09-13T09:26:08.613Z,7.40
2018-09-13T09:27:26.094Z,7.67
2018-09-13T09:28:44.217Z,7.10
2018-09-13T09:30:00.767Z,7.40
2018-09-13T09:31:17.542Z,7.10
2018-09-13T09:32:34.145Z,7.43
2018-09-13T09:33:51.005Z,7.10
2018-09-13T09:35:08.624Z,7.40
2018-09-13T09:36:25.389Z,6.53
2018-09-13T09:37:43.028Z,8.50
2018-09-13T09:38:59.971Z,7.70
2018-09-13T09:40:16.950Z,7.57
2018-09-13T09:41:34.047Z,8.20
2018-09-13T09:42:50.514Z,6.80
2018-09-13T09:44:08.081Z,7.13
2018-09-13T09:45:25.047Z,6.73
2018-09-13T09:46:41.728Z,6.27
2018-09-13T09:47:58.824Z,7.40
2018-09-13T09:49:16.230Z,7.80
2018-09-13T09:50:32.924Z,7.93
2018-09-13T09:51:49.666Z,7.50
2018-09-13T09:53:07.358Z,7.93
2018-09-13T09:54:24.362Z,6.50
2018-09-13T09:55:41.807Z,6.30
2018-09-13T09:56:59.173Z,6.90
2018-09-13T09:58:16.187Z,6.67
2018-09-13T09:59:33.240Z,6.50
2018-09-13T10:00:55.121Z,7.70
2018-09-13T10:02:16.783Z,5.57
2018-09-13T10:03:34.353Z,6.23
2018-09-13T10:04:51.228Z,7.73
2018-09-13T10:06:09.344Z,7.10
2018-09-13T10:07:26.548Z,8.67
2018-09-13T10:08:43.233Z,7.90
2018-09-13T10:10:00.857Z,5.80
2018-09-13T10:11:17.946Z,6.90
2018-09-13T10:12:34.778Z,7.17
2018-09-13T10:13:51.591Z,7.07
2018-09-13T10:15:13.903Z,10.67
2018-09-13T10:16:36.317Z,22.20
2018-09-13T10:17:58.471Z,23.60
2018-09-13T10:19:21.041Z,17.10
2018-09-13T10:20:43.975Z,12.30
2018-09-13T10:22:06.826Z,10.27
2018-09-13T10:23:29.516Z,8.20
2018-09-13T10:24:52.309Z,7.50
2018-09-13T10:26:15.121Z,7.53
2018-09-13T10:27:38.153Z,8.33
2018-09-13T10:29:59.067Z,7.63
2018-09-13T10:31:20.942Z,7.10
2018-09-13T10:33:41.602Z,7.00
2018-09-13T10:35:03.591Z,7.03
2018-09-13T10:36:26.325Z,7.20
2018-09-13T10:37:49.099Z,7.13
2018-09-13T10:39:14.393Z,6.10
2018-09-13T10:40:36.674Z,7.10
2018-09-13T10:41:59.531Z,7.00
2018-09-13T10:43:22.175Z,7.07
2018-09-13T10:44:44.960Z,6.40
2018-09-13T10:46:07.700Z,7.60
2018-09-13T10:47:30.140Z,7.50
2018-09-13T10:48:52.918Z,6.97
2018-09-13T10:50:15.694Z,6.33
2018-09-13T10:51:38.414Z,7.40
2018-09-13T10:52:58.755Z,6.77
2018-09-13T10:54:20.914Z,6.37
2018-09-13T10:55:38.113Z,6.50
2018-09-13T10:56:56.080Z,7.60
2018-09-13T10:58:13.616Z,6.37
2018-09-13T10:59:30.670Z,6.00
2018-09-13T11:00:48.114Z,7.00
2018-09-13T11:02:05.626Z,6.90
2018-09-13T11:03:22.449Z,7.27
2018-09-13T11:04:39.699Z,10.90
2018-09-13T11:05:57.005Z,11.27
2018-09-13T11:07:13.662Z,9.70
2018-09-13T11:08:31.170Z,9.13
2018-09-13T11:09:48.661Z,8.77
2018-09-13T11:11:05.578Z,7.60
2018-09-13T11:12:30.684Z,8.73
2018-09-13T11:13:53.125Z,7.20
2018-09-13T11:15:14.942Z,7.53
2018-09-13T11:16:32.331Z,8.83
2018-09-13T11:17:49.989Z,10.10
2018-09-13T11:19:07.004Z,10.10
2018-09-13T11:20:23.704Z,8.77
2018-09-13T11:21:40.700Z,9.27
2018-09-13T11:22:57.425Z,8.33
2018-09-13T11:24:14.439Z,8.80
2018-09-13T11:25:31.972Z,7.10
2018-09-13T11:26:48.999Z,7.33
2018-09-13T11:28:06.693Z,7.30
2018-09-13T11:29:23.459Z,7.10
2018-09-13T11:30:40.528Z,7.10
2018-09-13T11:31:57.310Z,6.83
2018-09-13T11:33:14.829Z,6.73
2018-09-13T11:34:31.422Z,7.57
2018-09-13T11:35:48.221Z,7.03
2018-09-13T11:37:04.925Z,7.03
2018-09-13T11:38:21.902Z,7.17
2018-09-13T11:39:38.587Z,6.27
2018-09-13T11:40:55.542Z,6.90
2018-09-13T11:42:12.167Z,7.13
2018-09-13T11:43:29.571Z,6.97
2018-09-13T11:44:47.742Z,6.50
2018-09-13T11:46:04.387Z,6.60
2018-09-13T11:47:21.507Z,7.30
2018-09-13T11:48:39.231Z,7.07
2018-09-13T11:49:56.623Z,7.00
2018-09-13T11:51:13.849Z,6.47
2018-09-13T11:52:31.862Z,6.63
2018-09-13T11:53:49.467Z,7.63
2018-09-13T11:55:07.136Z,7.17
2018-09-13T11:56:24.673Z,7.13
2018-09-13T11:57:42.245Z,7.87
2018-09-13T11:58:59.210Z,7.13
2018-09-13T12:00:16.031Z,7.27
2018-09-13T12:01:32.541Z,7.10
2018-09-13T12:02:49.188Z,7.33
2018-09-13T12:04:06.301Z,8.63
2018-09-13T12:05:23.685Z,7.10
2018-09-13T12:06:41.311Z,6.80
2018-09-13T12:07:57.873Z,7.03
2018-09-13T12:09:15.399Z,7.40
2018-09-13T12:10:32.051Z,7.43
2018-09-13T12:11:49.096Z,7.47
2018-09-13T12:13:06.772Z,6.60
2018-09-13T12:14:24.242Z,7.10
2018-09-13T12:15:40.973Z,7.10
2018-09-13T12:16:58.328Z,7.20
2018-09-13T12:18:15.122Z,6.00
2018-09-13T12:19:31.626Z,6.60
2018-09-13T12:20:48.726Z,6.87
2018-09-13T12:22:06.229Z,7.10
2018-09-13T12:23:23.009Z,7.00
2018-09-13T12:24:40.516Z,7.60
2018-09-13T12:25:57.045Z,7.63
2018-09-13T12:27:13.810Z,7.23
2018-09-13T12:28:30.830Z,6.10
2018-09-13T12:29:48.444Z,8.00
2018-09-13T12:31:06.131Z,7.20
2018-09-13T12:32:22.932Z,7.50
2018-09-13T12:33:40.499Z,6.47
2018-09-13T12:34:57.229Z,6.80
2018-09-13T12:36:13.844Z,7.27
2018-09-13T12:37:30.892Z,7.17
2018-09-13T12:38:48.469Z,6.70
2018-09-13T12:40:05.900Z,6.63
2018-09-13T12:41:23.057Z,7.13
2018-09-13T12:42:40.538Z,7.20
2018-09-13T12:43:57.403Z,6.47
2018-09-13T12:45:14.803Z,7.00
2018-09-13T12:46:31.702Z,6.97
2018-09-13T12:47:48.694Z,7.17
2018-09-13T12:49:06.676Z,7.53
2018-09-13T12:50:24.273Z,6.60
2018-09-13T12:51:43.062Z,6.37
2018-09-13T12:52:59.881Z,6.10
2018-09-13T12:54:16.584Z,6.70
2018-09-13T12:55:38.892Z,7.73
2018-09-13T12:56:56.427Z,6.90
2018-09-13T12:58:13.860Z,7.30
2018-09-13T12:59:30.673Z,7.17
2018-09-13T13:00:47.291Z,7.20
2018-09-13T13:02:04.120Z,6.70
2018-09-13T13:03:21.236Z,7.17
2018-09-13T13:04:38.114Z,8.03
2018-09-13T13:05:54.781Z,7.20
2018-09-13T13:07:11.693Z,7.70
2018-09-13T13:08:29.529Z,7.37
2018-09-13T13:09:47.086Z,6.80
2018-09-13T13:11:03.944Z,6.63
2018-09-13T13:12:20.528Z,7.13
2018-09-13T13:13:37.208Z,6.57
2018-09-13T13:14:54.092Z,6.87
2018-09-13T13:16:10.755Z,7.90
2018-09-13T13:17:27.486Z,7.60
2018-09-13T13:18:45.147Z,7.03
2018-09-13T13:20:01.849Z,7.10
2018-09-13T13:21:19.437Z,16.23
2018-09-13T13:22:36.545Z,12.07
2018-09-13T13:23:54.177Z,11.00
2018-09-13T13:25:10.796Z,9.03
2018-09-13T13:26:27.487Z,9.37
2018-09-13T13:27:44.070Z,10.07
2018-09-13T13:29:01.303Z,8.90
2018-09-13T13:30:18.903Z,9.33
2018-09-13T13:31:35.563Z,7.13
2018-09-13T13:32:52.205Z,7.93
2018-09-13T13:34:09.728Z,8.23
2018-09-13T13:35:26.624Z,8.37
2018-09-13T13:36:43.482Z,8.53
2018-09-13T13:38:00.256Z,8.20
2018-09-13T13:39:16.745Z,7.90
2018-09-13T13:40:33.738Z,8.20
2018-09-13T13:41:50.326Z,7.23
2018-09-13T13:43:07.174Z,8.13
2018-09-13T13:44:23.898Z,6.80
2018-09-13T13:45:40.573Z,7.93
2018-09-13T13:46:57.405Z,8.47
2018-09-13T13:48:14.229Z,6.80
2018-09-13T13:49:31.913Z,9.10
2018-09-13T13:50:48.744Z,7.90
2018-09-13T13:52:05.575Z,6.73
2018-09-13T13:53:22.256Z,7.67
2018-09-13T13:54:39.132Z,8.47
2018-09-13T13:55:55.990Z,7.30
2018-09-13T13:57:12.609Z,7.80
2018-09-13T13:58:29.444Z,8.80
2018-09-13T13:59:46.230Z,7.10
2018-09-13T14:01:03.036Z,7.30
2018-09-13T14:02:19.901Z,7.43
2018-09-13T14:03:37.062Z,8.07
2018-09-13T14:04:54.653Z,6.87
2018-09-13T14:06:11.724Z,7.73
2018-09-13T14:07:28.834Z,8.30
2018-09-13T14:08:45.546Z,8.47
2018-09-13T14:10:02.428Z,7.90
2018-09-13T14:11:19.055Z,8.07
2018-09-13T14:12:36.192Z,9.00
2018-09-13T14:13:53.077Z,7.43
2018-09-13T14:15:10.917Z,7.43
2018-09-13T14:16:27.554Z,8.10
2018-09-13T14:17:44.217Z,7.37
2018-09-13T14:19:01.064Z,7.40
2018-09-13T14:20:17.809Z,8.00
2018-09-13T14:21:34.645Z,7.37
2018-09-13T14:22:51.386Z,8.83
2018-09-13T14:24:08.227Z,7.00
2018-09-13T14:25:25.815Z,7.13
2018-09-13T14:26:42.669Z,8.13
2018-09-13T14:28:00.078Z,7.07
2018-09-13T14:29:16.972Z,7.17
2018-09-13T14:30:34.380Z,7.80
2018-09-13T14:31:51.273Z,6.37
2018-09-13T14:33:08.977Z,8.20
2018-09-13T14:34:26.498Z,8.30
2018-09-13T14:35:43.530Z,7.47
2018-09-13T14:37:00.101Z,6.53
2018-09-13T14:38:17.113Z,6.78
2018-09-13T14:39:33.970Z,8.00
2018-09-13T14:40:51.489Z,7.80
2018-09-13T14:42:08.297Z,7.85
2018-09-13T14:43:25.138Z,7.67
2018-09-13T14:44:42.144Z,7.83
2018-09-13T14:45:59.792Z,8.87
2018-09-13T14:47:16.746Z,7.22
2018-09-13T14:48:34.298Z,8.45
2018-09-13T14:49:50.902Z,8.38
2018-09-13T14:51:07.585Z,8.30
2018-09-13T14:52:24.413Z,7.50
2018-09-13T14:53:41.539Z,7.03
2018-09-13T14:54:58.990Z,7.37
2018-09-13T14:56:16.795Z,8.20
2018-09-13T14:57:34.360Z,10.50
2018-09-13T14:58:51.057Z,8.20
2018-09-13T15:00:08.631Z,9.60
2018-09-13T15:01:25.694Z,8.93
2018-09-13T15:02:42.357Z,9.75
2018-09-13T15:03:59.193Z,10.28
2018-09-13T15:05:16.069Z,9.00
2018-09-13T15:06:32.598Z,9.17
2018-09-13T15:07:49.770Z,8.70
2018-09-13T15:09:10.074Z,9.25
2018-09-13T15:10:27.030Z,9.10
2018-09-13T15:11:43.767Z,9.65
2018-09-13T15:13:00.657Z,10.82
2018-09-13T15:14:17.545Z,10.47
2018-09-13T15:15:34.404Z,12.03
2018-09-13T15:16:52.179Z,12.33
2018-09-13T15:18:09.493Z,9.93
2018-09-13T15:19:26.326Z,10.20
2018-09-13T15:20:43.494Z,12.43
2018-09-13T15:22:00.911Z,10.30
2018-09-13T15:23:17.767Z,11.12
2018-09-13T15:24:34.519Z,11.08
2018-09-13T15:25:51.076Z,10.50
2018-09-13T15:27:07.974Z,11.95
2018-09-13T15:28:24.612Z,11.48
2018-09-13T15:29:41.490Z,12.00
2018-09-13T15:30:59.167Z,11.43
2018-09-13T15:32:16.413Z,10.95
2018-09-13T15:33:33.530Z,12.40
2018-09-13T15:34:50.498Z,11.80
2018-09-13T15:36:07.955Z,11.40
2018-09-13T15:37:24.913Z,11.45
2018-09-13T15:38:41.941Z,13.45
2018-09-13T15:39:59.489Z,12.35
2018-09-13T15:41:16.908Z,12.80
2018-09-13T15:42:46.398Z,12.00
2018-09-13T15:44:06.274Z,11.97
2018-09-13T15:45:23.303Z,12.13
2018-09-13T15:46:40.827Z,11.12
2018-09-13T15:47:57.554Z,15.75
2018-09-13T15:49:14.165Z,13.58
2018-09-13T15:50:31.092Z,12.98
2018-09-13T15:51:47.677Z,13.40
2018-09-13T15:53:04.365Z,13.50
2018-09-13T15:54:23.257Z,12.95
2018-09-13T15:55:41.421Z,14.60
2018-09-13T15:56:58.585Z,14.47
2018-09-13T15:58:16.106Z,14.45
2018-09-13T15:59:33.084Z,14.73
2018-09-13T16:00:49.835Z,14.40
2018-09-13T16:02:06.534Z,14.00
2018-09-13T16:03:23.274Z,14.10
2018-09-13T16:04:40.126Z,11.90
2018-09-13T16:05:57.099Z,15.05
2018-09-13T16:07:13.946Z,15.40
2018-09-13T16:08:31.816Z,13.10
2018-09-13T16:09:49.098Z,13.70
2018-09-13T16:11:06.653Z,14.65
2018-09-13T16:12:23.551Z,13.20
2018-09-13T16:13:41.787Z,16.42
2018-09-13T16:14:59.112Z,15.80
2018-09-13T16:16:16.146Z,14.20
2018-09-13T16:17:40.361Z,13.85
2018-09-13T16:18:57.183Z,15.72
2018-09-13T16:20:14.753Z,15.18
2018-09-13T16:21:32.369Z,13.25
2018-09-13T16:22:55.329Z,12.05
2018-09-13T16:24:12.758Z,15.93
2018-09-13T16:25:29.456Z,14.43
2018-09-13T16:26:46.154Z,14.73
2018-09-13T16:28:03.965Z,13.72
2018-09-13T16:29:21.342Z,13.40
2018-09-13T16:30:38.057Z,16.05
2018-09-13T16:31:55.988Z,16.07
2018-09-13T16:33:13.080Z,15.70
2018-09-13T16:34:30.085Z,14.40
2018-09-13T16:35:51.449Z,14.98
2018-09-13T16:37:10.545Z,14.38
2018-09-13T16:38:33.248Z,11.18
2018-09-13T16:39:56.297Z,15.40
2018-09-13T16:42:18.471Z,20.97
2018-09-13T16:43:41.297Z,15.05
2018-09-13T16:44:58.292Z,12.75
2018-09-13T16:46:20.192Z,13.83
2018-09-13T16:47:42.974Z,12.95
2018-09-13T16:49:00.250Z,12.80
2018-09-13T16:50:17.112Z,13.50
2018-09-13T16:51:34.918Z,10.95
2018-09-13T16:52:52.269Z,11.12
2018-09-13T16:54:09.389Z,13.48
2018-09-13T16:55:26.304Z,13.00
2018-09-13T16:56:43.131Z,11.20
2018-09-13T16:57:59.871Z,13.58
2018-09-13T16:59:16.549Z,19.77
2018-09-13T17:00:33.301Z,20.27
2018-09-13T17:01:50.124Z,15.75
2018-09-13T17:03:06.784Z,14.30
2018-09-13T17:04:23.498Z,14.47
2018-09-13T17:05:39.969Z,14.80
2018-09-13T17:06:56.827Z,13.60